Decorah, Iowa
Current Conditions -  °F | °C
As of 8:15 PM on Saturday 25 Oct 2014 (Local Time) from KDEH Reporting Station
Clear Clear  
Wind Chill: 54°   Ceiling: Unl
Heat Index: 54°   Visibility: 10mi
Dew Point: 32°   Wind: 5mph
Humidity: 44%   Direction: NA
Pressure: 30.03"   Gusts: NA
Location:  43.3°N, 91.79°W
Report Text: KDEH 260115Z AUTO VRB04KT 10SM CLR 12/M00 A3003 RMK AO2
Loading
Personal Weather Stations






























Interactive Weather Map
Tropical Storm Tracking
New forecast layout! Learn more

10-Day Weather Forecast

Advertisements
Track Severe Weather on mobile